Accueil
METAR-TAF:

METAR-TAF

Aéroports :

West Plains Municipal Airport

West Plains, Missouri, États-Unis

latitude: 36-52-45N, longitude: 091-54-18W, altitude: 374 m

Observation

Le bulletin a été fait il y a 57 minutes, à 00:53 UTC
Vent 15 kt de nord avec des rafales jusqu'à 25 kt
Température -5°C
Humidité 79%
Pression 1029 hPa
Visibilité: 16.1 km
Ciel couvert à une hauteur de 2000 ft

METAR: KUNO 120053Z AUTO 36015G25KT 10SM OVC020 M05/M08 A3040 RMK AO2 PK WND 33026/2356 SNE04 SLP305 P0000 T10501078

Heure: 19:50 (01:50 UTC)


TAF: absent

Observations et prévisions météorologiques de plus de 4000 aéroports (messages METAR et TAF).

Les stations disponibles sont représentées par des disques jaunes et rouges sur la carte.

Passer la souris dessus pour voir le nom de la station.

Cliquer dessus pour voir les observations et prévisions météorologiques.

Pour changer de carte: cliquez sur les boutons verts avec une croix noire pour zoomer, sur le bouton vert avec un tiret pour effectuer un zoom arrière, ou sur les flèches vertes pour les cartes adjacentes.


METAR-TAF: